Terminal Aerodrome Forecast
Issued by NWS Melbourne, FL

Home | Current Version | Previous Version | Text Only | Print | Product List | Glossary On
Versions: 1 2 3 4 5 6 7 8 9 10 11 12 13 14 15
000
FTUS42 KMLB 281123
TAFVRB
TAF
KVRB 281123Z 2812/2912 20007KT P6SM FEW020 SCT250
     FM281300 21011KT P6SM SCT025 BKN250
     FM281500 22011G20KT P6SM VCTS SCT035CB BKN060
      TEMPO 2817/2819 5SM TSRA SCT020CB BKN030 BKN070
     FM282200 20008KT P6SM FEW020 SCT080 BKN250
     FM290300 18006KT P6SM FEW020 SCT250=

USA.gov is the U.S. government's official web portal to all federal, state and local government web resources and services.